Time;durP1;ratioP1;P1;durP2;ratioP2;P2;SDS_P1;SDS_P2;PMS_P1;PMS_P2;Temp;Humidity;BMP_temperature;BMP_pressure;BME280_temperature;BME280_humidity;BME280_pressure;Samples;Min_cycle;Max_cycle;Signal;HPM_P1;HPM_P2
2022/09/20 00:02:00;;;;;;;9.65;6.80;;;;;;;;;;5064687;28;20036;-77
2022/09/20 00:04:26;;;;;;;9.95;6.90;;;;;;;;;;5063304;28;20465;-76
2022/09/20 00:06:52;;;;;;;10.25;6.82;;;;;;;;;;5062685;28;20016;-77
2022/09/20 00:09:18;;;;;;;9.05;6.68;;;;;;;;;;5065288;28;20059;-77
2022/09/20 00:11:44;;;;;;;9.50;6.70;;;;;;;;;;5069774;28;20021;-78
2022/09/20 00:14:12;;;;;;;9.65;6.45;;;;;;;;;;5063799;28;20035;-77
2022/09/20 00:16:39;;;;;;;11.75;6.95;;;;;;;;;;5069250;28;20536;-77
2022/09/20 00:19:06;;;;;;;10.65;7.70;;;;;;;;;;5072092;28;20095;-77
2022/09/20 00:21:33;;;;;;;8.82;6.93;;;;;;;;;;5063286;28;20025;-77
2022/09/20 00:24:00;;;;;;;10.73;6.68;;;;;;;;;;5069859;28;20028;-77
2022/09/20 00:26:27;;;;;;;10.15;6.88;;;;;;;;;;5059990;28;20067;-77
2022/09/20 00:28:53;;;;;;;12.52;7.03;;;;;;;;;;5082185;28;20067;-77
2022/09/20 00:31:19;;;;;;;10.00;6.72;;;;;;;;;;5064876;28;20128;-77
2022/09/20 00:36:30;;;;;;;10.02;6.43;;;;;;;;;;5064602;28;20042;-77
2022/09/20 00:38:57;;;;;;;9.63;6.32;;;;;;;;;;5067752;28;20108;-77
2022/09/20 00:41:24;;;;;;;10.07;6.88;;;;;;;;;;5065168;28;20044;-77
2022/09/20 00:43:50;;;;;;;9.65;6.30;;;;;;;;;;5067386;28;20025;-76
2022/09/20 00:46:19;;;;;;;9.02;6.40;;;;;;;;;;5064794;28;20028;-77
2022/09/20 00:48:46;;;;;;;10.30;6.93;;;;;;;;;;5067589;28;20052;-77
2022/09/20 00:51:15;;;;;;;9.38;6.65;;;;;;;;;;5060958;28;20141;-76
2022/09/20 00:53:43;;;;;;;14.18;6.97;;;;;;;;;;5065376;28;20637;-77
2022/09/20 00:56:12;;;;;;;12.35;6.85;;;;;;;;;;5065378;28;20029;-77
2022/09/20 00:58:43;;;;;;;8.30;6.00;;;;;;;;;;5064740;28;20240;-77
2022/09/20 01:01:10;;;;;;;9.73;6.15;;;;;;;;;;5071579;28;20113;-77
2022/09/20 01:03:37;;;;;;;10.98;6.07;;;;;;;;;;5071012;28;20032;-78
2022/09/20 01:06:06;;;;;;;8.98;6.80;;;;;;;;;;5069614;28;20561;-77
2022/09/20 01:08:33;;;;;;;9.65;6.32;;;;;;;;;;5063935;28;20052;-77
2022/09/20 01:10:59;;;;;;;9.13;6.65;;;;;;;;;;5070494;28;20040;-78
2022/09/20 01:13:25;;;;;;;10.13;6.32;;;;;;;;;;5068396;28;20016;-77
2022/09/20 01:15:52;;;;;;;9.05;6.40;;;;;;;;;;5065685;28;20485;-76
2022/09/20 01:18:19;;;;;;;9.23;6.63;;;;;;;;;;5059235;28;20032;-77
2022/09/20 01:20:46;;;;;;;8.00;6.30;;;;;;;;;;5072705;28;20025;-77
2022/09/20 01:23:26;;;;;;;12.25;6.13;;;;;;;;;;5057998;28;20027;-77
2022/09/20 01:26:01;;;;;;;7.63;5.78;;;;;;;;;;5085833;28;20031;-78
2022/09/20 01:28:27;;;;;;;;;;;;;;;;;;5073328;28;20027;-78
2022/09/20 01:31:02;;;;;;;9.25;6.63;;;;;;;;;;5069943;28;19998;-78
2022/09/20 01:33:28;;;;;;;;;;;;;;;;;;5067503;28;20025;-77
2022/09/20 01:35:55;;;;;;;7.20;5.40;;;;;;;;;;5074257;28;20396;-77
2022/09/20 01:38:30;;;;;;;7.75;6.18;;;;;;;;;;5077903;28;20025;-76
2022/09/20 01:40:56;;;;;;;;;;;;;;;;;;5074137;28;20428;-77
2022/09/20 01:43:31;;;;;;;11.10;6.40;;;;;;;;;;5069409;28;19908;-77
2022/09/20 01:45:58;;;;;;;9.00;5.95;;;;;;;;;;5070577;28;20059;-77
2022/09/20 01:48:31;;;;;;;10.35;6.50;;;;;;;;;;5066816;28;20032;-76
2022/09/20 01:51:09;;;;;;;9.43;5.72;;;;;;;;;;5073677;28;20042;-77
2022/09/20 01:53:38;;;;;;;7.70;5.82;;;;;;;;;;5074637;28;20074;-76
2022/09/20 01:56:23;;;;;;;6.85;5.32;;;;;;;;;;5072826;28;20027;-77
2022/09/20 01:59:07;;;;;;;9.57;6.28;;;;;;;;;;5069006;28;20025;-77
2022/09/20 02:01:45;;;;;;;7.57;5.43;;;;;;;;;;5072556;28;20162;-74
2022/09/20 02:04:30;;;;;;;8.90;5.97;;;;;;;;;;5063251;28;20702;-76
2022/09/20 02:07:02;;;;;;;8.10;5.82;;;;;;;;;;5072756;28;20089;-76
2022/09/20 02:09:28;;;;;;;6.93;5.63;;;;;;;;;;5071296;28;20044;-76
2022/09/20 02:12:17;;;;;;;7.90;5.60;;;;;;;;;;5065781;28;20037;-76
2022/09/20 02:14:58;;;;;;;10.23;5.88;;;;;;;;;;5063313;28;20028;-76
2022/09/20 02:17:30;;;;;;;6.75;5.22;;;;;;;;;;5070233;28;20031;-76
2022/09/20 02:20:15;;;;;;;8.35;6.00;;;;;;;;;;5067763;28;20025;-77
2022/09/20 02:22:44;;;;;;;8.20;5.73;;;;;;;;;;5069060;28;20036;-76
2022/09/20 02:25:35;;;;;;;6.60;5.10;;;;;;;;;;5070393;28;20029;-76
2022/09/20 02:28:20;;;;;;;8.98;5.35;;;;;;;;;;5069097;28;20040;-76
2022/09/20 02:31:10;;;;;;;7.75;5.57;;;;;;;;;;5061448;28;20051;-76
2022/09/20 02:33:52;;;;;;;7.88;5.80;;;;;;;;;;5054766;28;20043;-76
2022/09/20 02:36:50;;;;;;;8.25;6.18;;;;;;;;;;5075053;28;20070;-76
2022/09/20 02:39:19;;;;;;;7.75;5.72;;;;;;;;;;5054496;28;20043;-76
2022/09/20 02:41:55;;;;;;;8.43;6.10;;;;;;;;;;5070178;28;20024;-76
2022/09/20 02:44:28;;;;;;;7.57;5.28;;;;;;;;;;5065553;28;20099;-76
2022/09/20 02:47:13;;;;;;;8.35;5.47;;;;;;;;;;5068963;28;20025;-76
2022/09/20 02:49:51;;;;;;;8.10;5.70;;;;;;;;;;5067473;28;20028;-76
2022/09/20 02:52:23;;;;;;;7.80;6.07;;;;;;;;;;5070278;28;20102;-77
2022/09/20 02:54:58;;;;;;;9.00;6.20;;;;;;;;;;5070144;28;20044;-77
2022/09/20 02:57:24;;;;;;;;;;;;;;;;;;5062373;28;20021;-77
2022/09/20 03:00:19;;;;;;;8.55;6.97;;;;;;;;;;5066486;28;20007;-76
2022/09/20 03:02:50;;;;;;;14.00;6.43;;;;;;;;;;5052625;28;20551;-76
2022/09/20 03:05:25;;;;;;;9.32;6.28;;;;;;;;;;5063645;28;20114;-76
2022/09/20 03:08:00;;;;;;;8.50;6.13;;;;;;;;;;5060213;28;20029;-76
2022/09/20 03:10:35;;;;;;;10.10;6.10;;;;;;;;;;5069297;28;20479;-77
2022/09/20 03:13:11;;;;;;;9.63;6.00;;;;;;;;;;5068573;28;20021;-76
2022/09/20 03:15:46;;;;;;;8.35;7.00;;;;;;;;;;5068924;28;20071;-76
2022/09/20 03:18:12;;;;;;;;;;;;;;;;;;5069604;28;20024;-78
2022/09/20 03:20:57;;;;;;;10.85;6.13;;;;;;;;;;5068788;28;20017;-75
2022/09/20 03:23:42;;;;;;;7.65;5.72;;;;;;;;;;5068306;28;20029;-76
2022/09/20 03:26:24;;;;;;;11.10;6.53;;;;;;;;;;5054327;28;20059;-77
2022/09/20 03:28:57;;;;;;;8.82;5.97;;;;;;;;;;5064138;28;20032;-77
2022/09/20 03:31:29;;;;;;;8.85;6.57;;;;;;;;;;5066587;28;20093;-77
2022/09/20 03:34:14;;;;;;;10.68;6.55;;;;;;;;;;5079207;28;20520;-76
2022/09/20 03:36:57;;;;;;;9.85;6.15;;;;;;;;;;5059724;28;20028;-77
2022/09/20 03:39:37;;;;;;;11.68;6.10;;;;;;;;;;5065826;28;20029;-76
2022/09/20 03:42:22;;;;;;;8.55;5.93;;;;;;;;;;5076738;28;20021;-76
2022/09/20 03:44:54;;;;;;;9.05;6.20;;;;;;;;;;5064023;28;20032;-76
2022/09/20 03:47:37;;;;;;;8.45;5.78;;;;;;;;;;5069290;28;20032;-77
2022/09/20 03:50:10;;;;;;;7.70;5.88;;;;;;;;;;5064117;28;20040;-77
2022/09/20 03:52:55;;;;;;;10.65;6.07;;;;;;;;;;5083838;28;20025;-77
2022/09/20 03:55:39;;;;;;;9.48;5.47;;;;;;;;;;5059515;28;20020;-77
2022/09/20 03:58:11;;;;;;;10.55;6.55;;;;;;;;;;5063627;28;20105;-76
2022/09/20 04:00:55;;;;;;;7.40;5.38;;;;;;;;;;5065893;28;20343;-76
2022/09/20 04:03:24;;;;;;;10.02;6.20;;;;;;;;;;5059780;28;20039;-76
2022/09/20 04:06:17;;;;;;;8.45;6.65;;;;;;;;;;5069951;28;20513;-77
2022/09/20 04:09:02;;;;;;;8.02;6.32;;;;;;;;;;5067913;28;20097;-76
2022/09/20 04:11:31;;;;;;;8.40;5.80;;;;;;;;;;5078303;28;20039;-76
2022/09/20 04:14:03;;;;;;;8.32;6.40;;;;;;;;;;5064987;28;20151;-76
2022/09/20 04:16:40;;;;;;;8.52;6.70;;;;;;;;;;5069948;28;20078;-76
2022/09/20 04:19:25;;;;;;;8.48;5.97;;;;;;;;;;5064267;28;20718;-77
2022/09/20 04:21:55;;;;;;;9.75;6.07;;;;;;;;;;5069224;28;20074;-77
2022/09/20 04:24:40;;;;;;;9.52;6.25;;;;;;;;;;5067718;28;20107;-77
2022/09/20 04:27:09;;;;;;;9.75;6.18;;;;;;;;;;5067742;28;20024;-77
2022/09/20 04:29:54;;;;;;;6.80;5.30;;;;;;;;;;5064296;28;20041;-77
2022/09/20 04:32:20;;;;;;;7.70;5.90;;;;;;;;;;5069788;28;20098;-77
2022/09/20 04:37:37;;;;;;;8.60;5.82;;;;;;;;;;5059063;28;20107;-77
2022/09/20 04:40:09;;;;;;;7.25;5.80;;;;;;;;;;5061334;28;20025;-77
2022/09/20 04:42:35;;;;;;;10.18;5.82;;;;;;;;;;5066729;28;20116;-76
2022/09/20 04:45:31;;;;;;;7.45;5.80;;;;;;;;;;5064748;28;20033;-77
2022/09/20 04:48:36;;;;;;;8.32;6.10;;;;;;;;;;5062142;28;20041;-76
2022/09/20 04:51:17;;;;;;;7.47;5.70;;;;;;;;;;5043866;28;20033;-77
2022/09/20 04:53:43;;;;;;;8.02;5.93;;;;;;;;;;5031508;28;20343;-76
2022/09/20 04:56:19;;;;;;;9.23;6.50;;;;;;;;;;5044588;28;20090;-77
2022/09/20 04:58:46;;;;;;;10.43;6.50;;;;;;;;;;5077677;28;20541;-76
2022/09/20 05:01:18;;;;;;;8.27;6.15;;;;;;;;;;5061270;28;20025;-76
2022/09/20 05:04:02;;;;;;;9.18;5.93;;;;;;;;;;5067292;28;20032;-75
2022/09/20 05:06:43;;;;;;;9.02;6.10;;;;;;;;;;5072009;28;20033;-77
2022/09/20 05:09:22;;;;;;;7.63;6.07;;;;;;;;;;5005295;28;1580050;-76
2022/09/20 05:11:51;;;;;;;8.45;5.40;;;;;;;;;;5066671;28;20025;-76
2022/09/20 05:14:30;;;;;;;9.48;5.93;;;;;;;;;;5067582;28;20027;-77
2022/09/20 05:17:08;;;;;;;9.68;7.07;;;;;;;;;;5067229;28;20027;-76
2022/09/20 05:19:38;;;;;;;8.35;6.47;;;;;;;;;;5064837;28;20054;-76
2022/09/20 05:22:30;;;;;;;10.18;6.78;;;;;;;;;;5069131;28;20033;-77
2022/09/20 05:25:15;;;;;;;8.40;6.05;;;;;;;;;;5061286;28;20021;-77
2022/09/20 05:27:46;;;;;;;9.15;6.43;;;;;;;;;;5061208;28;20051;-76
2022/09/20 05:30:12;;;;;;;8.27;6.47;;;;;;;;;;5066529;28;20058;-77
2022/09/20 05:32:57;;;;;;;9.65;5.95;;;;;;;;;;5062884;28;20017;-76
2022/09/20 05:35:23;;;;;;;8.48;6.13;;;;;;;;;;5066773;28;20388;-77
2022/09/20 05:38:01;;;;;;;11.40;6.32;;;;;;;;;;5064721;28;20020;-76
2022/09/20 05:40:27;;;;;;;9.70;6.35;;;;;;;;;;5067333;28;20055;-77
2022/09/20 05:43:10;;;;;;;8.95;6.53;;;;;;;;;;5062124;28;20036;-76
2022/09/20 05:45:46;;;;;;;8.32;6.18;;;;;;;;;;5065508;28;20028;-77
2022/09/20 05:48:21;;;;;;;11.65;6.30;;;;;;;;;;5065403;28;20031;-76
2022/09/20 05:51:12;;;;;;;9.55;6.20;;;;;;;;;;5067223;28;20184;-77
2022/09/20 05:53:38;;;;;;;8.18;6.25;;;;;;;;;;5061077;28;20116;-76
2022/09/20 05:56:07;;;;;;;8.38;6.57;;;;;;;;;;5079951;28;20074;-76
2022/09/20 05:58:36;;;;;;;7.72;5.80;;;;;;;;;;5066322;28;20017;-76
2022/09/20 06:01:09;;;;;;;12.20;6.13;;;;;;;;;;5063033;28;20033;-76
2022/09/20 06:04:10;;;;;;;13.82;7.05;;;;;;;;;;5073114;28;20532;-76
2022/09/20 06:06:49;;;;;;;9.30;7.18;;;;;;;;;;5023692;28;20096;-76
2022/09/20 06:09:29;;;;;;;8.75;6.68;;;;;;;;;;5062177;28;20122;-76
2022/09/20 06:12:01;;;;;;;10.13;6.28;;;;;;;;;;5070240;28;20036;-76
2022/09/20 06:14:40;;;;;;;9.25;6.15;;;;;;;;;;5064650;28;20665;-76
2022/09/20 06:17:23;;;;;;;13.00;7.03;;;;;;;;;;5068813;28;20024;-77
2022/09/20 06:19:49;;;;;;;9.40;6.47;;;;;;;;;;5066021;28;20016;-76
2022/09/20 06:22:28;;;;;;;11.07;6.75;;;;;;;;;;5065096;28;20092;-78
2022/09/20 06:25:09;;;;;;;11.23;7.05;;;;;;;;;;5062850;28;20032;-76
2022/09/20 06:27:39;;;;;;;11.45;7.50;;;;;;;;;;5063439;28;20060;-77
2022/09/20 06:30:07;;;;;;;8.30;6.13;;;;;;;;;;5070057;28;20123;-77
2022/09/20 06:32:33;;;;;;;7.97;6.53;;;;;;;;;;5064564;28;20299;-76
2022/09/20 06:35:01;;;;;;;10.82;6.70;;;;;;;;;;5067060;28;20060;-77
2022/09/20 06:43:13;;;;;;;8.50;5.63;;;;;;;;;;5073340;28;20048;-77
2022/09/20 06:45:40;;;;;;;8.23;5.82;;;;;;;;;;5069451;28;20071;-77
2022/09/20 06:48:08;;;;;;;11.57;6.60;;;;;;;;;;5066156;28;20048;-76
2022/09/20 06:50:35;;;;;;;10.80;6.70;;;;;;;;;;5066729;28;20413;-77
2022/09/20 06:53:01;;;;;;;9.73;6.05;;;;;;;;;;5082707;28;20381;-77
2022/09/20 06:55:30;;;;;;;10.70;5.75;;;;;;;;;;5064162;28;20031;-77
2022/09/20 06:57:56;;;;;;;12.70;7.70;;;;;;;;;;5074240;28;20520;-77
2022/09/20 07:00:23;;;;;;;10.70;6.32;;;;;;;;;;5069180;28;20021;-77
2022/09/20 07:02:49;;;;;;;8.70;6.05;;;;;;;;;;5082170;28;20036;-77
2022/09/20 07:05:16;;;;;;;8.95;5.93;;;;;;;;;;5065341;28;20094;-77
2022/09/20 07:07:43;;;;;;;8.25;5.97;;;;;;;;;;5064649;28;20051;-76
2022/09/20 07:10:13;;;;;;;8.88;5.85;;;;;;;;;;5067980;28;20029;-77
2022/09/20 07:12:39;;;;;;;14.52;6.00;;;;;;;;;;5068839;28;20501;-76
2022/09/20 07:15:06;;;;;;;9.70;5.63;;;;;;;;;;5070404;28;20500;-75
2022/09/20 07:17:32;;;;;;;10.00;5.55;;;;;;;;;;5072418;28;20096;-75
2022/09/20 07:19:59;;;;;;;10.05;6.05;;;;;;;;;;5066608;28;20100;-75
2022/09/20 07:22:25;;;;;;;10.02;5.80;;;;;;;;;;5064220;28;20020;-75
2022/09/20 07:24:51;;;;;;;7.47;5.70;;;;;;;;;;5069258;28;20016;-74
2022/09/20 07:27:17;;;;;;;8.57;6.00;;;;;;;;;;5071098;28;20048;-75
2022/09/20 07:29:45;;;;;;;9.02;5.50;;;;;;;;;;5069477;28;20093;-75
2022/09/20 07:32:11;;;;;;;7.95;5.43;;;;;;;;;;5071625;28;20090;-75
2022/09/20 07:34:37;;;;;;;9.13;5.80;;;;;;;;;;5072753;28;20104;-75
2022/09/20 07:37:03;;;;;;;7.18;5.78;;;;;;;;;;5069397;28;20044;-75
2022/09/20 07:39:29;;;;;;;7.53;5.38;;;;;;;;;;5075470;28;20046;-75
2022/09/20 07:41:56;;;;;;;6.55;5.45;;;;;;;;;;5070503;28;20029;-75
2022/09/20 07:44:26;;;;;;;8.48;5.47;;;;;;;;;;5069449;28;20035;-75
2022/09/20 07:46:56;;;;;;;7.30;6.00;;;;;;;;;;5069903;28;20214;-75
2022/09/20 07:49:24;;;;;;;9.98;5.38;;;;;;;;;;5069007;28;20496;-74
2022/09/20 07:51:51;;;;;;;7.78;5.90;;;;;;;;;;5070810;28;20036;-75
2022/09/20 07:54:17;;;;;;;9.50;6.32;;;;;;;;;;5067177;28;20392;-75
2022/09/20 07:56:43;;;;;;;9.45;5.53;;;;;;;;;;5068209;28;20094;-76
2022/09/20 07:59:10;;;;;;;12.43;6.13;;;;;;;;;;5071311;28;20055;-75
2022/09/20 08:01:36;;;;;;;12.60;6.38;;;;;;;;;;5068016;28;20058;-74
2022/09/20 08:04:04;;;;;;;11.70;6.20;;;;;;;;;;5071450;28;20044;-75
2022/09/20 08:06:30;;;;;;;10.43;5.97;;;;;;;;;;5073216;28;20090;-75
2022/09/20 08:08:56;;;;;;;8.18;5.95;;;;;;;;;;5070679;28;20057;-76
2022/09/20 08:11:28;;;;;;;8.77;5.88;;;;;;;;;;5069235;28;20063;-75
2022/09/20 08:13:55;;;;;;;17.73;6.28;;;;;;;;;;5071059;28;20153;-75
2022/09/20 08:16:22;;;;;;;11.23;6.40;;;;;;;;;;5073681;28;20614;-76
2022/09/20 08:18:49;;;;;;;14.32;6.40;;;;;;;;;;5073118;28;20024;-75
2022/09/20 08:21:16;;;;;;;13.57;6.45;;;;;;;;;;5072473;28;20032;-75
2022/09/20 08:23:42;;;;;;;8.45;6.55;;;;;;;;;;5070294;28;20025;-75
2022/09/20 08:26:13;;;;;;;8.68;5.85;;;;;;;;;;5072039;28;20070;-75
2022/09/20 08:28:40;;;;;;;10.00;6.63;;;;;;;;;;5079344;28;20024;-76
2022/09/20 08:31:07;;;;;;;7.53;5.25;;;;;;;;;;5072402;28;20028;-75
2022/09/20 08:33:36;;;;;;;9.73;5.43;;;;;;;;;;5073998;28;20028;-75
2022/09/20 08:36:02;;;;;;;13.43;6.25;;;;;;;;;;5072539;28;20025;-75
2022/09/20 08:38:29;;;;;;;8.68;5.75;;;;;;;;;;5070564;28;20054;-75
2022/09/20 08:40:59;;;;;;;9.40;6.70;;;;;;;;;;5071178;28;20082;-74
2022/09/20 08:43:27;;;;;;;7.32;5.70;;;;;;;;;;5071197;28;20028;-75
2022/09/20 08:45:55;;;;;;;9.38;5.88;;;;;;;;;;5078352;28;20033;-75
2022/09/20 08:48:22;;;;;;;7.63;5.70;;;;;;;;;;5069559;28;20040;-75
2022/09/20 08:50:49;;;;;;;10.63;5.82;;;;;;;;;;5072838;28;20089;-75
2022/09/20 08:53:15;;;;;;;12.05;6.00;;;;;;;;;;5067847;28;20021;-76
2022/09/20 08:55:42;;;;;;;9.35;6.60;;;;;;;;;;5070191;28;20025;-75
2022/09/20 08:58:09;;;;;;;9.65;6.20;;;;;;;;;;5068701;28;20527;-74
2022/09/20 09:00:36;;;;;;;10.57;6.15;;;;;;;;;;5064194;28;20752;-75
2022/09/20 09:03:20;;;;;;;8.60;5.63;;;;;;;;;;5072112;28;20398;-75
2022/09/20 09:05:49;;;;;;;8.35;6.65;;;;;;;;;;5067509;28;20020;-75
2022/09/20 09:08:17;;;;;;;11.30;5.95;;;;;;;;;;5059694;28;20210;-75
2022/09/20 09:10:52;;;;;;;8.77;6.00;;;;;;;;;;5070323;28;20031;-75
2022/09/20 09:13:31;;;;;;;8.50;5.38;;;;;;;;;;5064456;28;20071;-75
2022/09/20 09:15:59;;;;;;;9.63;6.05;;;;;;;;;;5065422;28;20093;-75
2022/09/20 09:18:32;;;;;;;8.13;5.15;;;;;;;;;;5069499;28;20021;-75
2022/09/20 09:20:59;;;;;;;7.45;5.80;;;;;;;;;;5064835;28;20039;-75
2022/09/20 09:23:26;;;;;;;7.38;5.20;;;;;;;;;;5065655;28;20533;-74
2022/09/20 09:25:53;;;;;;;6.78;5.53;;;;;;;;;;5067920;28;20036;-75
2022/09/20 09:28:31;;;;;;;8.27;6.50;;;;;;;;;;5063232;28;20032;-75
2022/09/20 09:31:12;;;;;;;7.30;5.72;;;;;;;;;;5069894;28;20029;-75
2022/09/20 09:33:43;;;;;;;12.98;6.25;;;;;;;;;;5073539;28;20035;-74
2022/09/20 09:36:14;;;;;;;7.95;5.55;;;;;;;;;;5073534;28;20020;-75
2022/09/20 09:38:44;;;;;;;8.25;5.47;;;;;;;;;;5072986;28;20020;-75
2022/09/20 09:41:32;;;;;;;8.07;5.50;;;;;;;;;;5061217;28;20104;-74
2022/09/20 09:43:59;;;;;;;9.35;6.28;;;;;;;;;;5085045;28;20021;-74
2022/09/20 09:46:26;;;;;;;7.50;5.07;;;;;;;;;;5072114;28;20189;-75
2022/09/20 09:49:11;;;;;;;8.18;5.50;;;;;;;;;;5060549;28;20017;-75
2022/09/20 09:51:37;;;;;;;7.03;5.60;;;;;;;;;;5072084;28;20036;-75
2022/09/20 09:54:04;;;;;;;12.30;8.57;;;;;;;;;;5074035;28;20032;-74
2022/09/20 09:56:48;;;;;;;7.88;5.93;;;;;;;;;;5071528;28;20021;-75
2022/09/20 09:59:15;;;;;;;7.68;5.40;;;;;;;;;;5080151;28;20025;-75
2022/09/20 10:01:44;;;;;;;7.68;5.38;;;;;;;;;;5073352;28;20028;-75
2022/09/20 10:04:19;;;;;;;8.82;5.50;;;;;;;;;;5068857;28;20028;-75
2022/09/20 10:06:54;;;;;;;8.23;6.55;;;;;;;;;;5073779;28;20091;-74
2022/09/20 10:09:30;;;;;;;7.97;5.22;;;;;;;;;;5083587;28;20105;-75
2022/09/20 10:12:08;;;;;;;7.97;5.38;;;;;;;;;;5067654;28;20504;-75
2022/09/20 10:14:45;;;;;;;8.77;5.20;;;;;;;;;;5066184;28;20021;-75
2022/09/20 10:17:23;;;;;;;6.72;4.93;;;;;;;;;;5071542;28;20362;-75
2022/09/20 10:19:55;;;;;;;7.47;5.60;;;;;;;;;;5063275;28;20572;-75
2022/09/20 10:22:51;;;;;;;8.30;4.97;;;;;;;;;;5069677;28;20020;-75
2022/09/20 10:25:36;;;;;;;8.68;5.53;;;;;;;;;;5052938;28;20029;-75
2022/09/20 10:28:02;;;;;;;6.90;4.97;;;;;;;;;;5071366;28;20556;-75
2022/09/20 10:30:35;;;;;;;5.93;4.85;;;;;;;;;;5067498;28;20498;-75
2022/09/20 10:33:20;;;;;;;7.28;5.05;;;;;;;;;;5081781;28;20025;-75
2022/09/20 10:35:46;;;;;;;6.32;5.18;;;;;;;;;;5066058;28;20024;-75
2022/09/20 10:38:14;;;;;;;8.20;5.55;;;;;;;;;;5068137;28;20423;-75
2022/09/20 10:43:50;;;;;;;7.50;5.28;;;;;;;;;;5071111;28;20047;-75
2022/09/20 10:46:25;;;;;;;7.70;5.88;;;;;;;;;;5072296;28;20701;-76
2022/09/20 10:48:56;;;;;;;5.85;4.95;;;;;;;;;;5056143;28;20025;-75
2022/09/20 10:51:26;;;;;;;6.47;4.72;;;;;;;;;;5070834;28;20396;-75
2022/09/20 10:53:52;;;;;;;7.63;5.25;;;;;;;;;;5086031;28;20158;-75
2022/09/20 10:56:27;;;;;;;8.07;5.38;;;;;;;;;;5073155;28;20051;-74
2022/09/20 10:58:54;;;;;;;;;;;;;;;;;;5066380;28;20025;-75
2022/09/20 11:01:47;;;;;;;10.93;5.53;;;;;;;;;;5072825;28;19913;-74
2022/09/20 11:04:31;;;;;;;7.72;5.05;;;;;;;;;;5065908;28;20044;-74
2022/09/20 11:07:03;;;;;;;6.97;5.10;;;;;;;;;;5072338;28;20031;-75
2022/09/20 11:09:35;;;;;;;6.97;5.00;;;;;;;;;;5069002;28;20033;-74
2022/09/20 11:12:09;;;;;;;8.50;6.88;;;;;;;;;;5071450;28;20032;-74
2022/09/20 11:14:37;;;;;;;6.93;5.10;;;;;;;;;;5064714;28;20032;-75
2022/09/20 11:17:08;;;;;;;8.90;6.88;;;;;;;;;;5070104;28;20163;-75
2022/09/20 11:19:49;;;;;;;6.75;4.93;;;;;;;;;;5061759;28;20098;-74
2022/09/20 11:22:29;;;;;;;7.32;5.65;;;;;;;;;;5055509;28;20033;-76
2022/09/20 11:25:01;;;;;;;8.70;5.60;;;;;;;;;;5070437;28;20025;-75
2022/09/20 11:27:40;;;;;;;6.90;5.57;;;;;;;;;;5064230;28;20118;-75
2022/09/20 11:30:17;;;;;;;6.22;5.00;;;;;;;;;;5071214;28;20033;-75
2022/09/20 11:32:47;;;;;;;6.65;4.97;;;;;;;;;;5072488;28;20032;-75
2022/09/20 11:35:31;;;;;;;6.60;4.75;;;;;;;;;;5068582;28;20032;-75
2022/09/20 11:38:17;;;;;;;7.57;5.53;;;;;;;;;;5070477;28;20052;-75
2022/09/20 11:40:52;;;;;;;6.80;4.82;;;;;;;;;;5067740;28;20028;-75
2022/09/20 11:43:19;;;;;;;6.60;4.93;;;;;;;;;;5058031;28;20107;-75
2022/09/20 11:45:47;;;;;;;7.18;4.97;;;;;;;;;;5072555;28;20120;-75
2022/09/20 11:48:17;;;;;;;7.32;4.85;;;;;;;;;;5072103;28;20032;-76
2022/09/20 11:50:44;;;;;;;7.20;4.97;;;;;;;;;;5061939;28;20058;-75
2022/09/20 11:53:16;;;;;;;5.80;5.00;;;;;;;;;;5082619;28;20025;-76
2022/09/20 11:55:42;;;;;;;6.65;4.75;;;;;;;;;;5067454;28;20024;-76
2022/09/20 11:58:11;;;;;;;7.60;4.88;;;;;;;;;;5070578;28;20024;-76
2022/09/20 12:00:40;;;;;;;6.18;5.03;;;;;;;;;;5080277;28;20035;-77
2022/09/20 12:03:11;;;;;;;9.20;5.20;;;;;;;;;;5055289;28;21347;-75
2022/09/20 12:05:39;;;;;;;7.20;5.22;;;;;;;;;;5083273;28;20031;-76
2022/09/20 12:08:07;;;;;;;7.28;5.80;;;;;;;;;;5061441;28;20112;-75
2022/09/20 12:10:36;;;;;;;5.80;4.88;;;;;;;;;;5074144;28;20047;-76
2022/09/20 12:13:20;;;;;;;5.95;4.38;;;;;;;;;;5066770;28;20021;-75
2022/09/20 12:15:56;;;;;;;7.20;5.00;;;;;;;;;;5071531;28;20055;-76
2022/09/20 12:18:31;;;;;;;6.60;4.72;;;;;;;;;;5069178;28;20044;-76
2022/09/20 12:20:57;;;;;;;6.05;4.47;;;;;;;;;;5070177;28;20080;-76
2022/09/20 12:23:39;;;;;;;6.07;4.53;;;;;;;;;;5066920;28;20028;-74
2022/09/20 12:26:20;;;;;;;5.50;4.80;;;;;;;;;;5071831;28;20036;-76
2022/09/20 12:28:48;;;;;;;5.18;4.38;;;;;;;;;;5070195;28;20033;-76
2022/09/20 12:31:18;;;;;;;5.47;4.38;;;;;;;;;;5071102;28;20028;-76
2022/09/20 12:33:58;;;;;;;6.45;4.32;;;;;;;;;;5072231;28;20021;-76
2022/09/20 12:36:25;;;;;;;6.82;5.18;;;;;;;;;;5073084;28;20051;-76
2022/09/20 12:38:55;;;;;;;7.22;5.40;;;;;;;;;;5070713;28;20074;-76
2022/09/20 12:41:21;;;;;;;5.32;4.47;;;;;;;;;;5071775;28;20032;-76
2022/09/20 12:43:50;;;;;;;4.85;4.22;;;;;;;;;;5064176;28;20519;-76
2022/09/20 12:46:29;;;;;;;6.20;4.60;;;;;;;;;;5072041;28;20461;-76
2022/09/20 12:52:49;;;;;;;4.90;4.40;;;;;;;;;;5054804;28;20552;-77
2022/09/20 12:55:28;;;;;;;5.78;4.95;;;;;;;;;;5073758;28;20424;-77
2022/09/20 12:58:03;;;;;;;6.70;4.95;;;;;;;;;;5072501;28;20039;-77
2022/09/20 13:00:37;;;;;;;4.95;4.05;;;;;;;;;;5066297;28;20472;-76
2022/09/20 13:03:13;;;;;;;5.55;4.35;;;;;;;;;;5068294;28;20385;-77
2022/09/20 13:05:40;;;;;;;5.85;4.80;;;;;;;;;;5074834;28;20016;-77
2022/09/20 13:08:12;;;;;;;7.07;4.65;;;;;;;;;;5068359;28;20321;-76
2022/09/20 13:10:41;;;;;;;5.00;4.50;;;;;;;;;;5075022;28;20032;-77
2022/09/20 13:13:16;;;;;;;6.85;4.22;;;;;;;;;;5075426;28;20036;-76
2022/09/20 13:15:48;;;;;;;9.38;4.82;;;;;;;;;;5073751;28;20025;-76
2022/09/20 13:18:14;;;;;;;6.22;4.30;;;;;;;;;;5088130;28;20095;-76
2022/09/20 13:20:41;;;;;;;4.82;3.85;;;;;;;;;;5074188;28;20021;-76
2022/09/20 13:23:15;;;;;;;5.80;4.07;;;;;;;;;;5076643;28;20037;-76
2022/09/20 13:25:41;;;;;;;5.45;4.20;;;;;;;;;;5075396;28;20028;-77
2022/09/20 13:28:10;;;;;;;7.00;4.05;;;;;;;;;;5072081;28;20033;-76
2022/09/20 13:30:39;;;;;;;5.95;3.75;;;;;;;;;;5090989;28;20016;-76
2022/09/20 13:33:21;;;;;;;7.30;4.32;;;;;;;;;;5075368;28;20024;-76
2022/09/20 13:35:49;;;;;;;5.47;4.30;;;;;;;;;;5067163;28;20031;-75
2022/09/20 13:38:23;;;;;;;5.45;4.20;;;;;;;;;;5077448;28;20492;-75
2022/09/20 13:40:51;;;;;;;5.63;4.20;;;;;;;;;;5076166;28;20063;-76
2022/09/20 13:43:27;;;;;;;5.25;4.22;;;;;;;;;;5075970;28;20062;-76
2022/09/20 13:46:15;;;;;;;4.40;3.83;;;;;;;;;;5071092;28;20025;-76
2022/09/20 13:48:41;;;;;;;5.07;4.35;;;;;;;;;;5074543;28;20024;-76
2022/09/20 13:51:18;;;;;;;4.63;3.95;;;;;;;;;;5076514;28;20434;-76
2022/09/20 13:53:45;;;;;;;4.75;4.07;;;;;;;;;;5075257;28;20021;-76
2022/09/20 13:56:17;;;;;;;4.95;3.80;;;;;;;;;;5072880;28;20023;-76
2022/09/20 13:58:43;;;;;;;4.60;4.07;;;;;;;;;;5073293;28;20020;-77
2022/09/20 14:01:21;;;;;;;5.50;4.20;;;;;;;;;;5075538;28;20036;-76
2022/09/20 14:03:47;;;;;;;4.97;4.00;;;;;;;;;;5084980;28;20021;-76
2022/09/20 14:06:14;;;;;;;6.25;4.25;;;;;;;;;;5073542;28;20059;-76
2022/09/20 14:08:42;;;;;;;5.72;4.15;;;;;;;;;;5079155;28;20056;-76
2022/09/20 14:11:17;;;;;;;6.57;4.32;;;;;;;;;;5091138;28;20035;-76
2022/09/20 14:13:43;;;;;;;;;;;;;;;;;;5066776;28;20030;-78
2022/09/20 14:16:09;;;;;;;5.13;4.43;;;;;;;;;;5069087;28;19908;-76
2022/09/20 14:18:36;;;;;;;5.30;3.88;;;;;;;;;;5072458;28;20062;-76
2022/09/20 14:21:03;;;;;;;5.60;4.97;;;;;;;;;;5073474;28;20059;-76
2022/09/20 14:23:29;;;;;;;4.97;4.35;;;;;;;;;;5070131;28;20054;-76
2022/09/20 14:26:05;;;;;;;5.70;4.45;;;;;;;;;;5072113;28;20020;-76
2022/09/20 14:28:31;;;;;;;5.20;4.18;;;;;;;;;;5072170;28;20103;-76
2022/09/20 14:31:06;;;;;;;5.03;4.10;;;;;;;;;;5071648;28;20058;-77
2022/09/20 14:33:32;;;;;;;5.25;3.90;;;;;;;;;;5070961;28;20025;-77
2022/09/20 14:35:58;;;;;;;5.22;4.15;;;;;;;;;;5075160;28;20024;-78
2022/09/20 14:38:25;;;;;;;5.22;4.32;;;;;;;;;;5063021;28;20042;-77
2022/09/20 14:40:52;;;;;;;4.78;4.20;;;;;;;;;;5071947;28;20028;-77
2022/09/20 14:43:25;;;;;;;5.30;4.25;;;;;;;;;;5075040;28;20029;-80
2022/09/20 14:45:55;;;;;;;5.18;4.47;;;;;;;;;;5071054;28;20393;-76
2022/09/20 14:48:21;;;;;;;5.68;3.95;;;;;;;;;;5059616;28;20047;-76
2022/09/20 14:51:06;;;;;;;5.60;4.28;;;;;;;;;;5071921;28;20070;-76
2022/09/20 14:53:35;;;;;;;4.43;3.60;;;;;;;;;;5070801;28;20017;-76
2022/09/20 14:56:05;;;;;;;6.43;3.72;;;;;;;;;;5072602;28;20025;-76
2022/09/20 14:58:31;;;;;;;6.18;4.03;;;;;;;;;;5073691;28;20052;-75
2022/09/20 15:01:03;;;;;;;4.82;4.03;;;;;;;;;;5072306;28;20039;-75
2022/09/20 15:03:31;;;;;;;5.88;4.40;;;;;;;;;;5067339;28;20028;-75
2022/09/20 15:05:58;;;;;;;6.63;4.10;;;;;;;;;;5071356;28;20510;-75
2022/09/20 15:08:24;;;;;;;5.75;4.07;;;;;;;;;;5070176;28;20040;-76
2022/09/20 15:10:50;;;;;;;6.47;4.38;;;;;;;;;;5071741;28;20442;-76
2022/09/20 15:13:17;;;;;;;5.75;4.45;;;;;;;;;;5072054;28;20092;-76
2022/09/20 15:15:43;;;;;;;4.78;4.20;;;;;;;;;;5072067;28;20362;-75
2022/09/20 15:18:28;;;;;;;7.03;3.88;;;;;;;;;;5069724;28;20021;-76
2022/09/20 15:20:55;;;;;;;5.88;4.28;;;;;;;;;;5072097;28;20039;-76
2022/09/20 15:23:21;;;;;;;6.00;4.53;;;;;;;;;;5071416;28;20116;-76
2022/09/20 15:25:51;;;;;;;4.60;3.75;;;;;;;;;;5068601;28;20024;-76
2022/09/20 15:28:18;;;;;;;7.78;3.78;;;;;;;;;;5071964;28;20111;-76
2022/09/20 15:30:45;;;;;;;7.18;4.80;;;;;;;;;;5064143;28;20087;-76
2022/09/20 15:33:11;;;;;;;5.32;4.07;;;;;;;;;;5072042;28;20078;-77